OVO381N ZGHA-ZBAA
Flight info
| Callsign | OVO381N |
|---|---|
| Flight time | N/A |
| Altitude | 37100 |
| Route | GUD7X GUDRO W56 LEBUN/K0843S1160 W56 NUDKU/K0846S1130 W56 DUGEB DUGEB6J |
| Aircraft | A20N/M-SDE2E3FGHIRWXY/LB1 |
Departure
| Time | 2026-04-30 13:19 |
|---|---|
| Airport | Changsha Huanghua International Airport (ZGHA) |
Arrival
| Time | N/A |
|---|---|
| Airport | Beijing Capital International Airport (ZBAA) |
| Time | Latitude | Longitude | Altitude | Speed | Heading |
|---|---|---|---|---|---|
| 2026-04-30 13:04 | 28.18686 | 113.21588 | 221 ft | 0 kts | 313° |
| 2026-04-30 13:11 | 28.18674 | 113.21604 | 218 ft | 4 kts | 313° |
| 2026-04-30 13:11 | 28.18655 | 113.21626 | 219 ft | 4 kts | 312° |
| 2026-04-30 13:11 | 28.18637 | 113.21648 | 225 ft | 4 kts | 311° |
| 2026-04-30 13:11 | 28.18623 | 113.21667 | 222 ft | 0 kts | 311° |
| 2026-04-30 13:14 | 28.18635 | 113.21665 | 216 ft | 4 kts | 0° |
| 2026-04-30 13:14 | 28.18676 | 113.21671 | 201 ft | 8 kts | 16° |
| 2026-04-30 13:14 | 28.18812 | 113.21679 | 217 ft | 14 kts | 356° |
| 2026-04-30 13:15 | 28.18914 | 113.21673 | 213 ft | 17 kts | 359° |
| 2026-04-30 13:15 | 28.19231 | 113.21656 | 213 ft | 25 kts | 356° |
| 2026-04-30 13:15 | 28.19388 | 113.21669 | 210 ft | 19 kts | 48° |
| 2026-04-30 13:16 | 28.19460 | 113.21755 | 213 ft | 15 kts | 358° |
| 2026-04-30 13:16 | 28.19580 | 113.21746 | 212 ft | 21 kts | 356° |
| 2026-04-30 13:16 | 28.19730 | 113.21737 | 209 ft | 22 kts | 357° |
| 2026-04-30 13:17 | 28.20043 | 113.21716 | 207 ft | 23 kts | 358° |
| 2026-04-30 13:17 | 28.20206 | 113.21709 | 204 ft | 24 kts | 355° |
| 2026-04-30 13:17 | 28.20540 | 113.21687 | 198 ft | 24 kts | 358° |
| 2026-04-30 13:18 | 28.20611 | 113.21715 | 200 ft | 9 kts | 71° |
| 2026-04-30 13:18 | 28.20560 | 113.21872 | 205 ft | 13 kts | 168° |
| 2026-04-30 13:18 | 28.20442 | 113.21879 | 201 ft | 32 kts | 177° |
| 2026-04-30 13:19 | 28.19991 | 113.21907 | 205 ft | 97 kts | 177° |
| 2026-04-30 13:19 | 28.19115 | 113.21962 | 214 ft | 152 kts | 176° |
| 2026-04-30 13:19 | 28.18027 | 113.22013 | 648 ft | 157 kts | 178° |
| 2026-04-30 13:19 | 28.16948 | 113.22069 | 1262 ft | 154 kts | 176° |
| 2026-04-30 13:20 | 28.15873 | 113.22156 | 1859 ft | 157 kts | 174° |
| 2026-04-30 13:20 | 28.14686 | 113.22246 | 2217 ft | 187 kts | 175° |
| 2026-04-30 13:20 | 28.13311 | 113.22332 | 2652 ft | 206 kts | 175° |
| 2026-04-30 13:20 | 28.11856 | 113.22419 | 3278 ft | 213 kts | 175° |
| 2026-04-30 13:21 | 28.10346 | 113.22510 | 4078 ft | 220 kts | 175° |
| 2026-04-30 13:21 | 28.08807 | 113.22603 | 5030 ft | 223 kts | 175° |
| 2026-04-30 13:21 | 28.07239 | 113.22699 | 5907 ft | 228 kts | 175° |
| 2026-04-30 13:22 | 28.03989 | 113.22899 | 7515 ft | 238 kts | 176° |
| 2026-04-30 13:22 | 28.02325 | 113.23001 | 8341 ft | 241 kts | 176° |
| 2026-04-30 13:22 | 27.99235 | 113.24345 | 9934 ft | 250 kts | 129° |
| 2026-04-30 13:23 | 27.98502 | 113.26125 | 10611 ft | 255 kts | 98° |
| 2026-04-30 13:23 | 27.98412 | 113.30206 | 12022 ft | 265 kts | 88° |
| 2026-04-30 13:24 | 27.98475 | 113.34446 | 13420 ft | 274 kts | 88° |
| 2026-04-30 13:24 | 27.99011 | 113.38729 | 14671 ft | 278 kts | 57° |
| 2026-04-30 13:25 | 28.02022 | 113.41648 | 15305 ft | 306 kts | 28° |
| 2026-04-30 13:25 | 28.05954 | 113.44196 | 15802 ft | 343 kts | 22° |
| 2026-04-30 13:26 | 28.13387 | 113.45580 | 16521 ft | 385 kts | 1° |
| 2026-04-30 13:26 | 28.18870 | 113.45940 | 17278 ft | 401 kts | 1° |
| 2026-04-30 13:27 | 28.24485 | 113.46334 | 18246 ft | 408 kts | 1° |
| 2026-04-30 13:28 | 28.33061 | 113.46953 | 19512 ft | 414 kts | 0° |
| 2026-04-30 13:28 | 28.38845 | 113.47372 | 20302 ft | 419 kts | 0° |
| 2026-04-30 13:28 | 28.41765 | 113.47581 | 20715 ft | 421 kts | 0° |
| 2026-04-30 13:29 | 28.47658 | 113.48000 | 21513 ft | 427 kts | 360° |
| 2026-04-30 13:29 | 28.53616 | 113.48425 | 22368 ft | 432 kts | 360° |
| 2026-04-30 13:30 | 28.62608 | 113.49069 | 23783 ft | 436 kts | 359° |
| 2026-04-30 13:31 | 28.68710 | 113.49506 | 24517 ft | 442 kts | 359° |
| 2026-04-30 13:31 | 28.78009 | 113.50172 | 25641 ft | 450 kts | 359° |
| 2026-04-30 13:32 | 28.84291 | 113.50623 | 26431 ft | 454 kts | 359° |
| 2026-04-30 13:32 | 28.90628 | 113.51080 | 27173 ft | 458 kts | 358° |
| 2026-04-30 13:33 | 28.97034 | 113.51538 | 27799 ft | 464 kts | 358° |
| 2026-04-30 13:33 | 29.03480 | 113.52002 | 28657 ft | 463 kts | 358° |
| 2026-04-30 13:34 | 29.06689 | 113.52236 | 29199 ft | 461 kts | 358° |
| 2026-04-30 13:34 | 29.16254 | 113.52932 | 30575 ft | 458 kts | 358° |
| 2026-04-30 13:35 | 29.19428 | 113.53161 | 30978 ft | 457 kts | 358° |
| 2026-04-30 13:35 | 29.25760 | 113.53619 | 31773 ft | 455 kts | 357° |
| 2026-04-30 13:36 | 29.32013 | 113.54105 | 32573 ft | 453 kts | 358° |
| 2026-04-30 13:36 | 29.35151 | 113.54375 | 33000 ft | 452 kts | 358° |
| 2026-04-30 13:36 | 29.41380 | 113.54926 | 33901 ft | 447 kts | 358° |
| 2026-04-30 13:37 | 29.44475 | 113.55199 | 34236 ft | 446 kts | 357° |
| 2026-04-30 13:37 | 29.50642 | 113.55737 | 34847 ft | 444 kts | 357° |
| 2026-04-30 13:38 | 29.56803 | 113.56270 | 35411 ft | 443 kts | 357° |
| 2026-04-30 13:38 | 29.59880 | 113.56538 | 35688 ft | 443 kts | 357° |
| 2026-04-30 13:38 | 29.65995 | 113.57071 | 36375 ft | 438 kts | 357° |
| 2026-04-30 13:39 | 29.72072 | 113.57600 | 36877 ft | 438 kts | 356° |
| 2026-04-30 13:39 | 29.78153 | 113.58127 | 37167 ft | 439 kts | 356° |
| 2026-04-30 13:40 | 29.81197 | 113.58392 | 37167 ft | 438 kts | 356° |
| 2026-04-30 13:40 | 29.87264 | 113.58923 | 37194 ft | 437 kts | 356° |
| 2026-04-30 13:41 | 29.93322 | 113.59649 | 37165 ft | 443 kts | 4° |
| 2026-04-30 13:41 | 29.99269 | 113.61897 | 37170 ft | 454 kts | 13° |
| 2026-04-30 13:42 | 30.05114 | 113.64736 | 37170 ft | 457 kts | 15° |
| 2026-04-30 13:42 | 30.13849 | 113.69171 | 37172 ft | 457 kts | 15° |
| 2026-04-30 13:43 | 30.19664 | 113.72101 | 37169 ft | 455 kts | 15° |
| 2026-04-30 13:43 | 30.25475 | 113.75012 | 37165 ft | 455 kts | 15° |
| 2026-04-30 13:44 | 30.31289 | 113.77922 | 37168 ft | 455 kts | 15° |
| 2026-04-30 13:44 | 30.37105 | 113.80839 | 37184 ft | 455 kts | 15° |
| 2026-04-30 13:45 | 30.44807 | 113.84711 | 37173 ft | 452 kts | 15° |
| 2026-04-30 13:46 | 30.50582 | 113.87617 | 37172 ft | 452 kts | 15° |
| 2026-04-30 13:46 | 30.56357 | 113.90525 | 37170 ft | 453 kts | 15° |
| 2026-04-30 13:47 | 30.62134 | 113.93440 | 37174 ft | 452 kts | 15° |
| 2026-04-30 13:47 | 30.67903 | 113.96279 | 37174 ft | 450 kts | 14° |
| 2026-04-30 13:48 | 30.73648 | 113.99223 | 37174 ft | 453 kts | 17° |
| 2026-04-30 13:48 | 30.79332 | 114.02404 | 37174 ft | 453 kts | 17° |
| 2026-04-30 13:49 | 30.84989 | 114.05524 | 37180 ft | 452 kts | 16° |
| 2026-04-30 13:49 | 30.90685 | 114.08619 | 37174 ft | 451 kts | 16° |
| 2026-04-30 13:50 | 30.96379 | 114.11703 | 37168 ft | 451 kts | 16° |
| 2026-04-30 13:50 | 31.04918 | 114.16336 | 37170 ft | 451 kts | 16° |
| 2026-04-30 13:51 | 31.10601 | 114.19427 | 37174 ft | 449 kts | 16° |
| 2026-04-30 13:51 | 31.16259 | 114.22507 | 37175 ft | 449 kts | 16° |
| 2026-04-30 13:52 | 31.21912 | 114.25586 | 37171 ft | 448 kts | 15° |
| 2026-04-30 13:52 | 31.27568 | 114.28672 | 37174 ft | 448 kts | 16° |
| 2026-04-30 13:53 | 31.33225 | 114.31672 | 37171 ft | 440 kts | 11° |
| 2026-04-30 13:53 | 31.36114 | 114.32677 | 37171 ft | 427 kts | 2° |
| 2026-04-30 13:53 | 31.38982 | 114.33155 | 37176 ft | 418 kts | 356° |
| 2026-04-30 13:54 | 31.44763 | 114.33517 | 37171 ft | 415 kts | 353° |
| 2026-04-30 13:54 | 31.50536 | 114.33662 | 37172 ft | 415 kts | 352° |
| 2026-04-30 13:55 | 31.56304 | 114.33788 | 37171 ft | 415 kts | 353° |
| 2026-04-30 13:55 | 31.62077 | 114.33941 | 37169 ft | 415 kts | 353° |
| 2026-04-30 13:56 | 31.67854 | 114.34109 | 37177 ft | 415 kts | 353° |
| 2026-04-30 13:56 | 31.73634 | 114.34279 | 37164 ft | 415 kts | 353° |
| 2026-04-30 13:57 | 31.79412 | 114.34460 | 37183 ft | 415 kts | 353° |
| 2026-04-30 13:57 | 31.85161 | 114.34640 | 37164 ft | 412 kts | 353° |
| 2026-04-30 13:58 | 31.93745 | 114.34897 | 37161 ft | 411 kts | 353° |
| 2026-04-30 13:59 | 31.99467 | 114.35068 | 37156 ft | 411 kts | 353° |
| 2026-04-30 13:59 | 32.05191 | 114.35240 | 37162 ft | 411 kts | 353° |
| 2026-04-30 14:00 | 32.10890 | 114.35415 | 37155 ft | 409 kts | 353° |
| 2026-04-30 14:00 | 32.19385 | 114.35672 | 37151 ft | 409 kts | 353° |
| 2026-04-30 14:01 | 32.25073 | 114.35848 | 37148 ft | 410 kts | 353° |
| 2026-04-30 14:01 | 32.30781 | 114.36249 | 37148 ft | 411 kts | 355° |
| 2026-04-30 14:02 | 32.36478 | 114.36801 | 37151 ft | 410 kts | 355° |
| 2026-04-30 14:02 | 32.42163 | 114.37355 | 37139 ft | 410 kts | 355° |
| 2026-04-30 14:03 | 32.47846 | 114.37886 | 37141 ft | 410 kts | 355° |
| 2026-04-30 14:03 | 32.53532 | 114.38406 | 37152 ft | 409 kts | 355° |
| 2026-04-30 14:04 | 32.59043 | 114.38930 | 38295 ft | 379 kts | 354° |
| 2026-04-30 14:04 | 32.64385 | 114.39421 | 37639 ft | 398 kts | 354° |
| 2026-04-30 14:05 | 32.67160 | 114.39656 | 37218 ft | 401 kts | 354° |
| 2026-04-30 14:05 | 32.69941 | 114.39905 | 37143 ft | 401 kts | 354° |
| 2026-04-30 14:05 | 32.75506 | 114.40424 | 37143 ft | 401 kts | 354° |
| 2026-04-30 14:06 | 32.83801 | 114.41208 | 37140 ft | 397 kts | 354° |
| 2026-04-30 14:07 | 32.92045 | 114.41977 | 37137 ft | 396 kts | 354° |
| 2026-04-30 14:08 | 33.00298 | 114.42746 | 37162 ft | 397 kts | 354° |
| 2026-04-30 14:08 | 33.08510 | 114.43519 | 37133 ft | 393 kts | 354° |
| 2026-04-30 14:09 | 33.13925 | 114.44027 | 37135 ft | 393 kts | 354° |
| 2026-04-30 14:10 | 33.22143 | 114.44797 | 37131 ft | 393 kts | 354° |
| 2026-04-30 14:10 | 33.27556 | 114.45307 | 37132 ft | 392 kts | 354° |
| 2026-04-30 14:11 | 33.32995 | 114.45820 | 37133 ft | 392 kts | 354° |
| 2026-04-30 14:11 | 33.38427 | 114.46330 | 37125 ft | 392 kts | 354° |
| 2026-04-30 14:12 | 33.43863 | 114.46841 | 37121 ft | 392 kts | 354° |
| 2026-04-30 14:12 | 33.49299 | 114.47353 | 37148 ft | 392 kts | 354° |
| 2026-04-30 14:13 | 33.54706 | 114.47866 | 37120 ft | 389 kts | 354° |
| 2026-04-30 14:13 | 33.60093 | 114.48376 | 37121 ft | 388 kts | 354° |
| 2026-04-30 14:14 | 33.65477 | 114.48880 | 37123 ft | 388 kts | 354° |
| 2026-04-30 14:14 | 33.70863 | 114.49381 | 37122 ft | 388 kts | 354° |
| 2026-04-30 14:15 | 33.76242 | 114.49885 | 37120 ft | 386 kts | 354° |
| 2026-04-30 14:15 | 33.81589 | 114.50388 | 37121 ft | 385 kts | 354° |
| 2026-04-30 14:16 | 33.86928 | 114.50889 | 37120 ft | 385 kts | 354° |
| 2026-04-30 14:16 | 33.92270 | 114.51390 | 37117 ft | 385 kts | 354° |
| 2026-04-30 14:17 | 33.97614 | 114.51894 | 37117 ft | 385 kts | 354° |
| 2026-04-30 14:17 | 34.02958 | 114.52399 | 37118 ft | 385 kts | 354° |
| 2026-04-30 14:18 | 34.08301 | 114.52905 | 37117 ft | 385 kts | 354° |
| 2026-04-30 14:18 | 34.16318 | 114.53664 | 37115 ft | 385 kts | 354° |
| 2026-04-30 14:19 | 34.24308 | 114.54426 | 37115 ft | 382 kts | 355° |
| 2026-04-30 14:20 | 34.29595 | 114.54930 | 37109 ft | 381 kts | 355° |
| 2026-04-30 14:20 | 34.37488 | 114.55678 | 37106 ft | 381 kts | 355° |
| 2026-04-30 14:21 | 34.42774 | 114.56182 | 37132 ft | 381 kts | 355° |
| 2026-04-30 14:22 | 34.50675 | 114.56935 | 37106 ft | 379 kts | 355° |
| 2026-04-30 14:22 | 34.58560 | 114.57681 | 37104 ft | 379 kts | 355° |
| 2026-04-30 14:23 | 34.69075 | 114.58679 | 37102 ft | 378 kts | 355° |
| 2026-04-30 14:24 | 34.76925 | 114.59427 | 37096 ft | 377 kts | 355° |
| 2026-04-30 14:25 | 34.87390 | 114.60424 | 37093 ft | 377 kts | 355° |
| 2026-04-30 14:26 | 34.95233 | 114.61175 | 37091 ft | 376 kts | 355° |
| 2026-04-30 14:27 | 35.03032 | 114.61922 | 37086 ft | 377 kts | 355° |
| 2026-04-30 14:27 | 35.08257 | 114.62423 | 37084 ft | 377 kts | 355° |
| 2026-04-30 14:28 | 35.16085 | 114.63177 | 37083 ft | 375 kts | 355° |
| 2026-04-30 14:28 | 35.21282 | 114.63678 | 37083 ft | 375 kts | 355° |
| 2026-04-30 14:29 | 35.30801 | 114.64594 | 37080 ft | 375 kts | 354° |
| 2026-04-30 14:31 | 35.44667 | 114.65936 | 37089 ft | 374 kts | 354° |
| 2026-04-30 14:31 | 35.52457 | 114.66691 | 37070 ft | 374 kts | 354° |
| 2026-04-30 14:32 | 35.60249 | 114.67448 | 37071 ft | 375 kts | 354° |
| 2026-04-30 14:33 | 35.65446 | 114.67954 | 37068 ft | 375 kts | 354° |
| 2026-04-30 14:33 | 35.73243 | 114.68715 | 37068 ft | 375 kts | 354° |
| 2026-04-30 14:34 | 35.78438 | 114.69222 | 37087 ft | 375 kts | 354° |
| 2026-04-30 14:34 | 35.83640 | 114.69731 | 37060 ft | 375 kts | 354° |
| 2026-04-30 14:35 | 35.91440 | 114.70495 | 37061 ft | 375 kts | 354° |
| 2026-04-30 14:36 | 35.95762 | 114.70919 | 37060 ft | 375 kts | 354° |
| 2026-04-30 14:36 | 36.00966 | 114.71430 | 37071 ft | 375 kts | 354° |
| 2026-04-30 14:37 | 36.06166 | 114.71942 | 37055 ft | 375 kts | 354° |
| 2026-04-30 14:37 | 36.11360 | 114.72452 | 37054 ft | 375 kts | 354° |
| 2026-04-30 14:38 | 36.16561 | 114.72959 | 37053 ft | 375 kts | 354° |
| 2026-04-30 14:38 | 36.21758 | 114.73467 | 37052 ft | 375 kts | 354° |
| 2026-04-30 14:39 | 36.26958 | 114.73977 | 37053 ft | 375 kts | 354° |
| 2026-04-30 14:39 | 36.32158 | 114.74496 | 37050 ft | 375 kts | 354° |
| 2026-04-30 14:40 | 36.37375 | 114.75463 | 37046 ft | 388 kts | 4° |
| 2026-04-30 14:40 | 36.39927 | 114.76552 | 37048 ft | 398 kts | 9° |
| 2026-04-30 14:40 | 36.45040 | 114.79316 | 37059 ft | 403 kts | 12° |
| 2026-04-30 14:41 | 36.50123 | 114.82294 | 37041 ft | 404 kts | 12° |
| 2026-04-30 14:41 | 36.55203 | 114.85289 | 37038 ft | 404 kts | 12° |
| 2026-04-30 14:42 | 36.60289 | 114.88260 | 37036 ft | 404 kts | 12° |
| 2026-04-30 14:42 | 36.65377 | 114.91218 | 37046 ft | 404 kts | 12° |
| 2026-04-30 14:43 | 36.70467 | 114.94178 | 37033 ft | 404 kts | 12° |
| 2026-04-30 14:43 | 36.75563 | 114.97145 | 37033 ft | 404 kts | 12° |
| 2026-04-30 14:44 | 36.80657 | 115.00118 | 37036 ft | 404 kts | 12° |
| 2026-04-30 14:44 | 36.85746 | 115.03094 | 37041 ft | 403 kts | 12° |
| 2026-04-30 14:45 | 36.90815 | 115.06064 | 37033 ft | 402 kts | 12° |
| 2026-04-30 14:45 | 36.95884 | 115.09035 | 37033 ft | 402 kts | 12° |
| 2026-04-30 14:46 | 37.00952 | 115.12008 | 37033 ft | 402 kts | 12° |
| 2026-04-30 14:46 | 37.06021 | 115.14988 | 37028 ft | 403 kts | 12° |
| 2026-04-30 14:47 | 37.11100 | 115.17978 | 37025 ft | 403 kts | 12° |
| 2026-04-30 14:47 | 37.16179 | 115.20973 | 37031 ft | 404 kts | 12° |
| 2026-04-30 14:48 | 37.21224 | 115.23953 | 37016 ft | 404 kts | 12° |
| 2026-04-30 14:48 | 37.26303 | 115.26958 | 37032 ft | 404 kts | 12° |
| 2026-04-30 14:49 | 37.31388 | 115.29969 | 37027 ft | 404 kts | 12° |
| 2026-04-30 14:49 | 37.36473 | 115.32986 | 37036 ft | 404 kts | 12° |
| 2026-04-30 14:50 | 37.44067 | 115.37504 | 37026 ft | 402 kts | 12° |
| 2026-04-30 14:51 | 37.51661 | 115.42023 | 37024 ft | 403 kts | 12° |
| 2026-04-30 14:52 | 37.59262 | 115.46562 | 37023 ft | 403 kts | 12° |
| 2026-04-30 14:52 | 37.66867 | 115.51113 | 37018 ft | 404 kts | 12° |
| 2026-04-30 14:53 | 37.74482 | 115.55681 | 37017 ft | 404 kts | 12° |
| 2026-04-30 14:54 | 37.79640 | 115.58006 | 37016 ft | 383 kts | 360° |
| 2026-04-30 14:54 | 37.84813 | 115.58513 | 37023 ft | 368 kts | 349° |
| 2026-04-30 14:55 | 37.92451 | 115.58033 | 36708 ft | 365 kts | 347° |
| 2026-04-30 14:55 | 37.97532 | 115.57607 | 36195 ft | 368 kts | 347° |
| 2026-04-30 14:56 | 38.02659 | 115.57200 | 35711 ft | 370 kts | 347° |
| 2026-04-30 14:56 | 38.07834 | 115.56817 | 35214 ft | 374 kts | 348° |
| 2026-04-30 14:57 | 38.10406 | 115.56676 | 34975 ft | 376 kts | 349° |
| 2026-04-30 14:57 | 38.15649 | 115.56368 | 34496 ft | 378 kts | 348° |
| 2026-04-30 14:58 | 38.20902 | 115.56009 | 33254 ft | 381 kts | 349° |
| 2026-04-30 14:58 | 38.23571 | 115.55858 | 32425 ft | 389 kts | 353° |
| 2026-04-30 14:58 | 38.29058 | 115.57104 | 30669 ft | 419 kts | 13° |
| 2026-04-30 14:59 | 38.34530 | 115.60174 | 28533 ft | 439 kts | 19° |
| 2026-04-30 15:00 | 38.42904 | 115.65558 | 25106 ft | 460 kts | 22° |
| 2026-04-30 15:00 | 38.48700 | 115.69282 | 23044 ft | 467 kts | 22° |
| 2026-04-30 15:01 | 38.54481 | 115.72956 | 21110 ft | 462 kts | 22° |
| 2026-04-30 15:01 | 38.57337 | 115.74766 | 20477 ft | 452 kts | 23° |
| 2026-04-30 15:01 | 38.62911 | 115.78301 | 18795 ft | 444 kts | 23° |
| 2026-04-30 15:02 | 38.65637 | 115.80122 | 18039 ft | 440 kts | 28° |
| 2026-04-30 15:02 | 38.68105 | 115.82419 | 17331 ft | 435 kts | 36° |
| 2026-04-30 15:03 | 38.74852 | 115.89666 | 17119 ft | 420 kts | 37° |
| 2026-04-30 15:03 | 38.79321 | 115.94489 | 16908 ft | 420 kts | 37° |
| 2026-04-30 15:04 | 38.83770 | 115.99294 | 16676 ft | 417 kts | 37° |
| 2026-04-30 15:04 | 38.90401 | 116.06464 | 16357 ft | 414 kts | 37° |
| 2026-04-30 15:05 | 38.96994 | 116.13611 | 16025 ft | 413 kts | 37° |
| 2026-04-30 15:06 | 39.01530 | 116.18072 | 15801 ft | 408 kts | 25° |
| 2026-04-30 15:06 | 39.06952 | 116.19424 | 15594 ft | 399 kts | 355° |
| 2026-04-30 15:07 | 39.12455 | 116.18648 | 15379 ft | 397 kts | 352° |
| 2026-04-30 15:07 | 39.17943 | 116.17781 | 15169 ft | 397 kts | 352° |
| 2026-04-30 15:08 | 39.23426 | 116.16938 | 14956 ft | 396 kts | 352° |
| 2026-04-30 15:08 | 39.31627 | 116.15691 | 14756 ft | 395 kts | 352° |
| 2026-04-30 15:09 | 39.37045 | 116.14868 | 14556 ft | 394 kts | 352° |
| 2026-04-30 15:09 | 39.42488 | 116.14040 | 14343 ft | 393 kts | 352° |
| 2026-04-30 15:10 | 39.47918 | 116.13214 | 14141 ft | 392 kts | 352° |
| 2026-04-30 15:11 | 39.58765 | 116.11557 | 13725 ft | 390 kts | 352° |
| 2026-04-30 15:11 | 39.64118 | 116.10736 | 13514 ft | 389 kts | 352° |
| 2026-04-30 15:12 | 39.72177 | 116.09498 | 13204 ft | 388 kts | 352° |
| 2026-04-30 15:13 | 39.77530 | 116.08675 | 13012 ft | 387 kts | 353° |
| 2026-04-30 15:14 | 39.88187 | 116.07028 | 12599 ft | 385 kts | 353° |
| 2026-04-30 15:14 | 39.96147 | 116.05798 | 12304 ft | 384 kts | 353° |
| 2026-04-30 15:16 | 40.09335 | 116.03752 | 11802 ft | 380 kts | 353° |
| 2026-04-30 15:17 | 40.19699 | 116.01550 | 11415 ft | 378 kts | 1° |
| 2026-04-30 15:18 | 40.31387 | 116.08829 | 10431 ft | 357 kts | 29° |
| 2026-04-30 15:19 | 40.37332 | 116.13378 | 10104 ft | 305 kts | 30° |